This is the latest recevied weather packets stored in our database for station/object MM0ZFG-5. If no packets are shown the sender has not sent any weather packets the latest 10 day(s).
| Time | Temp. | Humidity | Pressure | Rain* | Wind** | Luminosity | Snow |
|---|---|---|---|---|---|---|---|
| 1777605484 | 7.22° C | 81% | 1016.8 hPa | 0 mm | - | - | - |
| 1777604944 | 7.78° C | 80% | 1016.8 hPa | 0 mm | - | - | - |
| 1777591085 | 10° C | 70% | 1017.8 hPa | 0 mm | - | - | - |
| 1777584964 | 11.67° C | 65% | 1017.5 hPa | 0 mm | - | - | - |
| 1777584424 | 11.67° C | 65% | 1017.3 hPa | 0 mm | - | - | - |
| 1777578304 | 13.89° C | 62% | 1016.4 hPa | 0 mm | - | - | - |
| 1777573084 | 17.22° C | 54% | 1016.3 hPa | 0 mm | - | - | - |
| 1777571104 | 18.33° C | 51% | 1016.2 hPa | 0 mm | - | - | - |
| 1777568965 | 20° C | 46% | 1016.4 hPa | 0 mm | - | - | - |
| 1777568404 | 20° C | 46% | 1016.4 hPa | 0 mm | - | - | - |
| 1777560305 | 20° C | 45% | 1017.8 hPa | 0 mm | - | - | - |
| 1777558684 | 20° C | 43% | 1018.5 hPa | 0 mm | - | - | - |
| 1777553665 | 17.78° C | 49% | 1019.7 hPa | 0 mm | - | - | - |
| 1777550944 | 16.67° C | 51% | 1020.3 hPa | 0 mm | - | - | - |
| 1777546803 | 15° C | 54% | 1021.1 hPa | 0 mm | - | - | - |
| 1777541785 | 11.11° C | 59% | 1022.4 hPa | 0 mm | - | - | - |
| 1777539603 | 10° C | 60% | 1022.9 hPa | 0 mm | - | - | - |
| 1777537645 | 9.44° C | 61% | 1023.2 hPa | 0 mm | - | - | - |
| 1777535645 | 8.33° C | 61% | 1023.8 hPa | 0 mm | - | - | - |
| 1777530985 | 6.67° C | 68% | 1024.1 hPa | 0 mm | - | - | - |
| 1777530425 | 6.67° C | 70% | 1024.1 hPa | 0 mm | - | - | - |
| 1777527904 | 6.11° C | 70% | 1024.2 hPa | 0 mm | - | - | - |
| 1777526824 | 6.11° C | 71% | 1024.1 hPa | 0 mm | - | - | - |
| 1777525744 | 6.11° C | 72% | 1024 hPa | 0 mm | - | - | - |
| 1777525204 | 5.56° C | 72% | 1024 hPa | 0 mm | - | - | - |
* Rain latest hour (hover to see other rain measurements)
** Current wind speed in m/s (hover to see current wind gust speed)